2019/06/26 07:50 EDDW 260750Z 29009KT CAVOK 25/19 Q1021 NOSIG